Time;durP1;ratioP1;P1;durP2;ratioP2;P2;SDS_P1;SDS_P2;PMS_P1;PMS_P2;Temp;Humidity;BMP_temperature;BMP_pressure;BME280_temperature;BME280_humidity;BME280_pressure;Samples;Min_cycle;Max_cycle;Signal;HPM_P1;HPM_P2
2021/12/10 00:01:43;;;;;;;54.78;29.88;;;4.10;99.90;;;;;;5061570;28;20052;-80
2021/12/10 00:04:09;;;;;;;54.90;30.08;;;4.10;99.90;;;;;;5063576;28;20056;-80
2021/12/10 00:06:36;;;;;;;47.00;29.70;;;4.10;99.90;;;;;;5058521;28;20127;-81
2021/12/10 00:09:02;;;;;;;63.53;28.27;;;4.10;99.90;;;;;;5064543;28;20056;-81
2021/12/10 00:11:29;;;;;;;47.03;29.27;;;4.10;99.90;;;;;;5062908;28;20048;-81
2021/12/10 00:13:55;;;;;;;54.47;29.83;;;4.10;99.90;;;;;;5062438;28;20044;-80
2021/12/10 00:16:22;;;;;;;49.38;29.75;;;4.10;99.90;;;;;;5058662;28;20049;-81
2021/12/10 00:18:53;;;;;;;57.70;30.13;;;4.10;99.90;;;;;;5070765;28;20052;-81
2021/12/10 00:21:20;;;;;;;53.40;30.63;;;4.20;99.90;;;;;;5054117;28;20049;-81
2021/12/10 00:23:50;;;;;;;57.40;30.83;;;4.10;99.90;;;;;;5060184;28;20049;-81
2021/12/10 00:26:16;;;;;;;62.07;29.10;;;4.10;99.90;;;;;;5060565;28;20129;-81
2021/12/10 00:28:43;;;;;;;53.88;31.23;;;4.10;99.90;;;;;;5063710;28;20306;-80
2021/12/10 00:31:17;;;;;;;57.72;31.92;;;4.20;99.90;;;;;;5061608;28;20060;-81
2021/12/10 00:33:44;;;;;;;58.20;32.72;;;4.10;99.90;;;;;;5068556;28;20049;-80
2021/12/10 00:36:12;;;;;;;54.28;28.10;;;4.20;99.90;;;;;;5063685;28;20041;-81
2021/12/10 00:38:39;;;;;;;52.45;29.48;;;4.20;99.90;;;;;;5060842;28;20071;-81
2021/12/10 00:41:05;;;;;;;53.15;30.55;;;4.20;99.90;;;;;;5065571;28;20056;-81
2021/12/10 00:43:32;;;;;;;61.28;33.63;;;4.10;99.90;;;;;;5064236;28;20061;-81
2021/12/10 00:45:58;;;;;;;50.75;29.77;;;4.10;99.90;;;;;;5066754;28;20051;-79
2021/12/10 00:48:25;;;;;;;54.92;29.75;;;4.10;99.90;;;;;;5061731;28;20045;-81
2021/12/10 00:50:51;;;;;;;55.92;28.70;;;4.10;99.90;;;;;;5066530;28;20051;-81
2021/12/10 00:53:18;;;;;;;50.70;29.73;;;4.10;99.90;;;;;;5065579;28;20041;-81
2021/12/10 00:55:45;;;;;;;50.88;29.92;;;4.10;99.90;;;;;;5066587;28;20040;-81
2021/12/10 00:58:11;;;;;;;49.80;28.92;;;4.10;99.90;;;;;;5062895;28;20040;-81
2021/12/10 01:00:38;;;;;;;52.13;28.70;;;4.10;99.90;;;;;;5062976;28;20052;-80
2021/12/10 01:03:04;;;;;;;51.78;31.77;;;4.10;99.90;;;;;;5065592;28;20495;-81
2021/12/10 01:05:31;;;;;;;54.95;30.90;;;4.10;99.90;;;;;;5055041;28;20056;-81
2021/12/10 01:07:57;;;;;;;46.47;30.33;;;4.10;99.90;;;;;;5067000;28;20056;-81
2021/12/10 01:10:24;;;;;;;53.00;29.23;;;4.10;99.90;;;;;;5063935;28;20392;-81
2021/12/10 01:12:50;;;;;;;48.60;27.35;;;4.10;99.90;;;;;;5061247;28;20480;-80
2021/12/10 01:15:37;;;;;;;71.78;31.00;;;4.10;99.90;;;;;;5055012;28;20052;-81
2021/12/10 01:26:39;;;;;;;60.15;30.42;;;4.00;99.90;;;;;;5051898;28;20057;-81
2021/12/10 01:29:05;;;;;;;54.65;28.88;;;4.00;99.90;;;;;;5058945;28;20080;-80
2021/12/10 01:31:32;;;;;;;55.33;28.60;;;4.00;99.90;;;;;;5057074;28;20080;-81
2021/12/10 01:33:58;;;;;;;60.92;30.27;;;4.10;99.90;;;;;;5057630;28;20044;-81
2021/12/10 01:36:25;;;;;;;63.47;31.05;;;4.00;99.90;;;;;;5059017;28;20049;-81
2021/12/10 01:38:53;;;;;;;46.80;29.15;;;4.00;99.90;;;;;;5064272;28;20055;-80
2021/12/10 01:41:19;;;;;;;46.03;27.20;;;4.00;99.90;;;;;;5049701;28;20507;-81
2021/12/10 01:43:47;;;;;;;47.90;28.85;;;4.10;99.90;;;;;;5053388;28;20088;-80
2021/12/10 01:46:14;;;;;;;48.92;30.83;;;4.10;99.90;;;;;;5057837;28;20045;-82
2021/12/10 01:48:40;;;;;;;46.47;29.02;;;4.10;99.90;;;;;;5056800;28;20056;-81
2021/12/10 01:51:07;;;;;;;57.33;30.65;;;4.10;99.90;;;;;;5057193;28;20053;-81
2021/12/10 01:53:33;;;;;;;51.05;31.00;;;4.10;99.90;;;;;;5062872;28;20059;-80
2021/12/10 01:56:00;;;;;;;54.50;30.20;;;4.10;99.90;;;;;;5057232;28;20102;-81
2021/12/10 01:58:27;;;;;;;57.92;36.33;;;4.10;99.90;;;;;;5057725;28;20057;-81
2021/12/10 02:00:53;;;;;;;57.58;31.60;;;4.10;99.90;;;;;;5057630;28;20048;-80
2021/12/10 02:03:20;;;;;;;61.10;32.08;;;4.10;99.90;;;;;;5059129;28;20053;-81
2021/12/10 02:05:46;;;;;;;53.70;30.30;;;4.10;99.90;;;;;;5058756;28;20074;-81
2021/12/10 02:08:13;;;;;;;58.20;31.00;;;4.10;99.90;;;;;;5060206;28;20041;-81
2021/12/10 02:10:39;;;;;;;63.83;32.78;;;4.10;99.90;;;;;;5064117;28;20052;-81
2021/12/10 02:13:06;;;;;;;57.95;31.85;;;4.20;99.90;;;;;;5053521;28;20049;-80
2021/12/10 02:15:32;;;;;;;55.55;32.60;;;4.10;99.90;;;;;;5066673;28;20048;-80
2021/12/10 02:17:59;;;;;;;58.78;30.35;;;4.10;99.90;;;;;;5061736;28;20438;-79
2021/12/10 02:20:26;;;;;;;70.28;32.70;;;4.10;99.90;;;;;;5061543;28;20135;-81
2021/12/10 02:22:53;;;;;;;59.65;29.17;;;4.10;99.90;;;;;;5054669;28;20395;-81
2021/12/10 02:25:19;;;;;;;50.47;28.83;;;4.20;99.90;;;;;;5062320;28;20060;-81
2021/12/10 02:27:46;;;;;;;52.63;29.25;;;4.10;99.90;;;;;;5067909;28;20041;-81
2021/12/10 02:30:12;;;;;;;55.28;27.60;;;4.20;99.90;;;;;;5057537;28;20064;-80
2021/12/10 02:32:39;;;;;;;51.72;28.23;;;4.20;99.90;;;;;;5059784;28;20057;-81
2021/12/10 02:35:05;;;;;;;50.22;26.05;;;4.20;99.90;;;;;;5058755;28;20049;-79
2021/12/10 02:37:32;;;;;;;55.08;26.70;;;4.20;99.90;;;;;;5064499;28;20056;-81
2021/12/10 02:39:58;;;;;;;48.38;25.63;;;4.20;99.90;;;;;;5066025;28;20048;-81
2021/12/10 02:42:25;;;;;;;44.42;26.63;;;4.20;99.90;;;;;;5061088;28;20037;-80
2021/12/10 02:44:51;;;;;;;41.95;24.70;;;4.20;99.90;;;;;;5062532;28;20389;-81
2021/12/10 02:47:20;;;;;;;46.10;24.65;;;4.20;99.90;;;;;;5069423;28;20068;-81
2021/12/10 02:49:46;;;;;;;44.50;25.10;;;4.20;99.90;;;;;;5064448;28;20059;-81
2021/12/10 02:52:14;;;;;;;36.40;23.83;;;4.10;99.90;;;;;;5059159;28;20059;-81
2021/12/10 02:54:43;;;;;;;36.67;22.35;;;4.10;99.90;;;;;;5065273;28;20060;-81
2021/12/10 02:57:09;;;;;;;44.92;23.95;;;4.20;99.90;;;;;;5069466;28;20102;-81
2021/12/10 02:59:36;;;;;;;44.70;25.20;;;4.20;99.90;;;;;;5062526;28;20055;-81
2021/12/10 03:02:02;;;;;;;45.95;23.27;;;4.20;99.90;;;;;;5055565;28;20049;-80
2021/12/10 03:04:31;;;;;;;40.10;21.60;;;4.20;99.90;;;;;;5063123;28;20656;-81
2021/12/10 03:06:58;;;;;;;32.78;20.20;;;4.30;99.90;;;;;;5065924;28;20048;-81
2021/12/10 03:09:24;;;;;;;38.95;20.48;;;4.20;99.90;;;;;;5064836;28;20063;-81
2021/12/10 03:11:52;;;;;;;33.92;19.90;;;4.20;99.90;;;;;;5065314;28;20045;-81
2021/12/10 03:14:19;;;;;;;28.90;19.92;;;4.20;99.90;;;;;;5054205;28;20072;-81
2021/12/10 03:16:46;;;;;;;41.85;22.23;;;4.20;99.90;;;;;;5063170;28;20060;-81
2021/12/10 03:19:12;;;;;;;35.63;24.02;;;4.20;99.90;;;;;;5060826;28;20049;-80
2021/12/10 03:21:39;;;;;;;39.03;24.73;;;4.20;99.90;;;;;;5061180;28;20522;-81
2021/12/10 03:24:05;;;;;;;43.17;24.98;;;4.20;99.90;;;;;;5068605;28;20119;-80
2021/12/10 03:26:32;;;;;;;45.10;24.80;;;4.20;99.90;;;;;;5059586;28;20507;-81
2021/12/10 03:28:59;;;;;;;39.65;24.17;;;4.20;99.90;;;;;;5061521;28;20148;-81
2021/12/10 03:31:25;;;;;;;51.97;26.80;;;4.20;99.90;;;;;;5055477;28;20258;-81
2021/12/10 03:33:52;;;;;;;50.40;25.60;;;4.20;99.90;;;;;;5061992;28;20055;-80
2021/12/10 03:36:18;;;;;;;42.00;25.05;;;4.20;99.90;;;;;;5056790;28;20063;-80
2021/12/10 03:38:45;;;;;;;40.28;24.85;;;4.10;99.90;;;;;;5064865;28;20078;-81
2021/12/10 03:41:11;;;;;;;46.55;26.45;;;4.20;99.90;;;;;;5062453;28;20048;-79
2021/12/10 03:43:38;;;;;;;40.03;25.00;;;4.20;99.90;;;;;;5063308;28;20052;-81
2021/12/10 03:46:04;;;;;;;37.25;24.85;;;4.10;99.90;;;;;;5065831;28;20057;-80
2021/12/10 03:48:31;;;;;;;39.35;22.70;;;4.10;99.90;;;;;;5066977;28;20044;-81
2021/12/10 03:50:57;;;;;;;36.28;23.75;;;4.10;99.90;;;;;;5070977;28;20075;-82
2021/12/10 03:53:24;;;;;;;42.78;22.23;;;4.10;99.90;;;;;;5067013;28;20059;-81
2021/12/10 03:55:50;;;;;;;37.75;22.63;;;4.20;99.90;;;;;;5064481;28;20049;-81
2021/12/10 03:58:17;;;;;;;36.35;22.27;;;4.10;99.90;;;;;;5062159;28;20044;-80
2021/12/10 04:00:43;;;;;;;33.45;21.10;;;4.20;99.90;;;;;;5069260;28;20057;-80
2021/12/10 04:03:10;;;;;;;40.67;21.23;;;4.10;99.90;;;;;;5064496;28;20058;-80
2021/12/10 04:05:37;;;;;;;39.47;22.83;;;4.10;99.90;;;;;;5063600;28;20056;-81
2021/12/10 04:08:03;;;;;;;42.58;23.35;;;4.10;99.90;;;;;;5054065;28;20053;-81
2021/12/10 04:10:30;;;;;;;44.97;20.65;;;4.10;99.90;;;;;;5065268;28;20051;-81
2021/12/10 04:12:56;;;;;;;32.15;20.30;;;4.10;99.90;;;;;;5061748;28;20056;-80
2021/12/10 04:15:23;;;;;;;31.38;20.35;;;4.20;99.90;;;;;;5052299;28;20051;-81
2021/12/10 04:17:49;;;;;;;37.03;20.85;;;4.10;99.90;;;;;;5053765;28;20049;-81
2021/12/10 04:20:16;;;;;;;34.78;20.48;;;4.20;99.90;;;;;;5054659;28;20502;-80
2021/12/10 04:22:46;;;;;;;36.58;22.50;;;4.20;99.90;;;;;;5062087;28;20059;-81
2021/12/10 04:25:12;;;;;;;45.83;24.33;;;4.10;99.90;;;;;;5060782;28;20045;-80
2021/12/10 04:27:39;;;;;;;43.75;24.55;;;4.10;99.90;;;;;;5053044;28;20052;-81
2021/12/10 04:30:05;;;;;;;47.25;26.30;;;4.10;99.90;;;;;;5062948;28;20048;-81
2021/12/10 04:32:32;;;;;;;47.88;26.13;;;4.10;99.90;;;;;;5065513;28;20186;-82
2021/12/10 04:34:59;;;;;;;47.85;26.17;;;4.10;99.90;;;;;;5064613;28;20059;-81
2021/12/10 04:37:25;;;;;;;50.72;27.33;;;4.10;99.90;;;;;;5064770;28;20056;-81
2021/12/10 04:39:52;;;;;;;42.38;25.73;;;4.10;99.90;;;;;;5061680;28;20049;-81
2021/12/10 04:42:18;;;;;;;48.90;28.27;;;4.10;99.90;;;;;;5060169;28;20408;-80
2021/12/10 04:44:45;;;;;;;48.00;29.08;;;4.10;99.90;;;;;;5063280;28;20483;-80
2021/12/10 04:47:11;;;;;;;42.85;26.20;;;4.00;99.90;;;;;;5059560;28;20048;-81
2021/12/10 04:49:38;;;;;;;45.08;26.52;;;4.00;99.90;;;;;;5056177;28;20056;-81
2021/12/10 04:52:04;;;;;;;45.22;27.10;;;4.10;99.90;;;;;;5065379;28;20048;-81
2021/12/10 04:54:31;;;;;;;48.85;27.65;;;4.10;99.90;;;;;;5066945;28;20049;-81
2021/12/10 04:56:58;;;;;;;58.15;26.05;;;4.10;99.90;;;;;;5049126;28;20060;-81
2021/12/10 04:59:25;;;;;;;47.97;27.52;;;4.10;99.90;;;;;;5059497;28;20060;-81
2021/12/10 05:01:52;;;;;;;46.47;28.38;;;4.20;99.90;;;;;;5057118;28;20395;-80
2021/12/10 05:04:19;;;;;;;49.42;27.30;;;4.10;99.90;;;;;;5057984;28;20105;-80
2021/12/10 05:06:46;;;;;;;46.85;25.08;;;4.10;99.90;;;;;;5053583;28;20056;-81
2021/12/10 05:09:12;;;;;;;52.17;25.95;;;4.10;99.90;;;;;;5059699;28;20059;-80
2021/12/10 05:11:39;;;;;;;39.65;25.67;;;4.10;99.90;;;;;;5065728;28;20049;-81
2021/12/10 05:14:05;;;;;;;52.78;25.30;;;4.20;99.90;;;;;;5055684;28;20044;-81
2021/12/10 05:16:32;;;;;;;49.25;24.67;;;4.10;99.90;;;;;;5058197;28;20052;-80
2021/12/10 05:18:59;;;;;;;49.45;26.27;;;4.10;99.90;;;;;;5066526;28;20403;-81
2021/12/10 05:21:26;;;;;;;46.42;26.05;;;4.10;99.90;;;;;;5051998;28;20052;-81
2021/12/10 05:23:52;;;;;;;36.17;24.17;;;4.10;99.90;;;;;;5057594;28;20053;-81
2021/12/10 05:26:19;;;;;;;41.08;24.52;;;4.00;99.90;;;;;;5055219;28;20052;-80
2021/12/10 05:28:46;;;;;;;39.05;25.23;;;4.00;99.90;;;;;;5059037;28;20051;-80
2021/12/10 05:31:12;;;;;;;36.88;23.25;;;4.00;99.90;;;;;;5057957;28;20062;-81
2021/12/10 05:33:39;;;;;;;46.47;24.67;;;4.00;99.90;;;;;;5059324;28;20079;-81
2021/12/10 05:36:05;;;;;;;40.13;24.67;;;4.00;99.90;;;;;;5057662;28;20045;-80
2021/12/10 05:38:32;;;;;;;37.80;24.30;;;4.00;99.90;;;;;;5061531;28;20479;-80
2021/12/10 05:40:58;;;;;;;52.28;26.40;;;4.00;99.90;;;;;;5059079;28;20053;-81
2021/12/10 05:43:25;;;;;;;46.53;25.95;;;4.00;99.90;;;;;;5059880;28;20060;-80
2021/12/10 05:45:51;;;;;;;51.50;25.25;;;3.90;99.90;;;;;;5057933;28;20048;-81
2021/12/10 05:48:18;;;;;;;33.92;23.40;;;3.90;99.90;;;;;;5059814;28;20064;-80
2021/12/10 05:50:44;;;;;;;41.10;25.20;;;3.90;99.90;;;;;;5068112;28;20381;-80
2021/12/10 05:53:11;;;;;;;32.03;21.67;;;3.90;99.90;;;;;;5067711;28;20503;-80
2021/12/10 05:55:37;;;;;;;36.20;24.38;;;3.80;99.90;;;;;;5062793;28;20575;-81
2021/12/10 05:58:04;;;;;;;34.63;22.38;;;3.80;99.90;;;;;;5054153;28;20251;-81
2021/12/10 06:00:31;;;;;;;35.38;22.77;;;3.80;99.90;;;;;;5057781;28;20048;-81
2021/12/10 06:02:57;;;;;;;37.78;22.42;;;3.80;99.90;;;;;;5055281;28;20056;-80
2021/12/10 06:05:24;;;;;;;33.40;23.02;;;3.80;99.90;;;;;;5054098;28;20056;-80
2021/12/10 06:07:50;;;;;;;39.70;24.15;;;3.80;99.90;;;;;;5071255;28;20049;-80
2021/12/10 06:10:17;;;;;;;28.13;20.52;;;3.80;99.90;;;;;;5069933;28;20052;-80
2021/12/10 06:12:43;;;;;;;30.88;20.05;;;3.80;99.90;;;;;;5061205;28;20048;-81
2021/12/10 06:15:10;;;;;;;36.22;19.95;;;3.80;99.90;;;;;;5063554;28;20411;-80
2021/12/10 06:17:36;;;;;;;27.85;18.23;;;3.80;99.90;;;;;;5069386;28;20056;-80
2021/12/10 06:20:03;;;;;;;25.00;18.73;;;3.70;99.90;;;;;;5059125;28;20403;-80
2021/12/10 06:22:29;;;;;;;28.17;17.52;;;3.60;99.90;;;;;;5065498;28;20135;-80
2021/12/10 06:24:56;;;;;;;25.90;17.65;;;3.60;99.90;;;;;;5065733;28;20051;-80
2021/12/10 06:27:23;;;;;;;28.73;18.90;;;3.60;99.90;;;;;;5068170;28;20052;-79
2021/12/10 06:29:49;;;;;;;22.25;16.38;;;3.60;99.90;;;;;;5056691;28;20045;-80
2021/12/10 06:32:16;;;;;;;26.10;16.92;;;3.60;99.90;;;;;;5057475;28;20045;-80
2021/12/10 06:34:42;;;;;;;23.13;16.63;;;3.60;99.90;;;;;;5058217;28;20041;-80
2021/12/10 06:37:09;;;;;;;26.67;16.35;;;3.50;99.90;;;;;;5058016;28;20048;-80
2021/12/10 06:39:35;;;;;;;30.88;16.90;;;3.50;99.90;;;;;;5063379;28;20068;-80
2021/12/10 06:42:02;;;;;;;22.92;17.17;;;3.40;99.90;;;;;;5058803;28;20051;-80
2021/12/10 06:44:29;;;;;;;25.13;15.18;;;3.40;99.90;;;;;;5061104;28;20538;-80
2021/12/10 06:46:56;;;;;;;25.52;15.40;;;3.40;99.90;;;;;;5061301;28;20124;-80
2021/12/10 06:49:22;;;;;;;21.05;15.00;;;3.30;99.90;;;;;;5053798;28;20056;-80
2021/12/10 06:51:49;;;;;;;22.73;15.43;;;3.20;99.90;;;;;;5056065;28;20044;-80
2021/12/10 06:54:15;;;;;;;22.85;14.80;;;3.10;99.90;;;;;;5054643;28;20053;-81
2021/12/10 06:56:42;;;;;;;19.73;13.60;;;3.00;99.90;;;;;;5056214;28;20053;-80
2021/12/10 06:59:08;;;;;;;19.73;13.13;;;3.00;99.90;;;;;;5055749;28;20484;-80
2021/12/10 07:01:35;;;;;;;23.23;14.25;;;3.00;99.90;;;;;;5053989;28;20049;-79
2021/12/10 07:04:01;;;;;;;26.77;14.93;;;3.00;99.90;;;;;;5057530;28;20164;-81
2021/12/10 07:06:28;;;;;;;20.85;14.30;;;3.00;99.90;;;;;;5056492;28;20059;-80
2021/12/10 07:08:54;;;;;;;21.67;13.25;;;3.00;99.90;;;;;;5054320;28;20048;-80
2021/12/10 07:11:21;;;;;;;18.98;12.57;;;3.00;99.90;;;;;;5054232;28;20103;-80
2021/12/10 07:13:48;;;;;;;26.08;14.07;;;2.90;99.90;;;;;;5055496;28;20049;-81
2021/12/10 07:16:15;;;;;;;18.48;13.40;;;2.80;99.90;;;;;;5054948;28;20059;-80
2021/12/10 07:18:42;;;;;;;19.77;12.90;;;2.80;99.90;;;;;;5056524;28;20036;-80
2021/12/10 07:21:08;;;;;;;18.52;12.38;;;2.80;99.90;;;;;;5057791;28;20048;-80
2021/12/10 07:23:36;;;;;;;26.52;14.30;;;2.80;99.90;;;;;;5056611;28;20057;-81
2021/12/10 07:26:02;;;;;;;19.83;13.05;;;2.70;99.90;;;;;;5069585;28;20468;-80
2021/12/10 07:28:29;;;;;;;24.55;13.82;;;2.70;99.90;;;;;;5054398;28;20386;-79
2021/12/10 07:30:55;;;;;;;23.48;12.82;;;2.70;99.90;;;;;;5054058;28;20049;-80
2021/12/10 07:33:22;;;;;;;20.95;12.70;;;2.80;99.90;;;;;;5054471;28;20469;-81
2021/12/10 07:35:49;;;;;;;17.95;13.18;;;2.80;99.90;;;;;;5052468;28;20044;-81
2021/12/10 07:38:15;;;;;;;20.85;12.00;;;2.70;99.90;;;;;;5054281;28;20053;-80
2021/12/10 07:40:42;;;;;;;18.75;13.15;;;2.60;99.90;;;;;;5055902;28;20107;-80
2021/12/10 07:43:09;;;;;;;23.55;13.40;;;2.60;99.90;;;;;;5053102;28;20423;-80
2021/12/10 07:45:35;;;;;;;22.65;12.82;;;2.60;99.90;;;;;;5053488;28;20393;-81
2021/12/10 07:48:03;;;;;;;18.98;12.98;;;2.50;99.90;;;;;;5058829;28;20049;-81
2021/12/10 07:50:32;;;;;;;28.08;13.70;;;2.50;99.90;;;;;;5060095;28;20055;-79
2021/12/10 07:52:58;;;;;;;18.85;12.63;;;2.50;99.90;;;;;;5054796;28;20484;-81
2021/12/10 07:55:25;;;;;;;22.35;13.50;;;2.50;99.90;;;;;;5055857;28;20056;-81
2021/12/10 07:57:51;;;;;;;22.05;13.55;;;2.50;99.90;;;;;;5052422;28;20068;-81
2021/12/10 08:00:18;;;;;;;23.65;14.63;;;2.50;99.90;;;;;;5051659;28;20060;-80
2021/12/10 08:02:44;;;;;;;17.50;12.88;;;2.50;99.90;;;;;;5051779;28;20045;-81
2021/12/10 08:05:11;;;;;;;16.38;11.38;;;2.50;99.90;;;;;;5055720;28;20053;-80
2021/12/10 08:07:38;;;;;;;23.52;12.57;;;2.50;99.90;;;;;;5053491;28;20056;-81
2021/12/10 08:10:04;;;;;;;16.70;12.73;;;2.60;99.90;;;;;;5055423;28;20052;-80
2021/12/10 08:12:31;;;;;;;24.65;13.30;;;2.60;99.90;;;;;;5064560;28;20040;-82
2021/12/10 08:14:57;;;;;;;20.95;13.32;;;2.60;99.90;;;;;;5053364;28;20041;-81
2021/12/10 08:17:24;;;;;;;20.90;12.32;;;2.60;99.90;;;;;;5052955;28;20069;-80
2021/12/10 08:19:51;;;;;;;17.02;10.93;;;2.60;99.90;;;;;;5053589;28;20068;-80
2021/12/10 08:22:18;;;;;;;18.77;13.57;;;2.60;99.90;;;;;;5051768;28;20048;-80
2021/12/10 08:24:45;;;;;;;20.55;12.75;;;2.60;99.90;;;;;;5052473;28;20056;-80
2021/12/10 08:27:11;;;;;;;31.38;13.40;;;2.60;99.90;;;;;;5051559;28;20055;-81
2021/12/10 08:29:38;;;;;;;22.92;12.13;;;2.60;99.90;;;;;;5054242;28;20056;-81
2021/12/10 08:32:04;;;;;;;20.60;12.77;;;2.60;99.90;;;;;;5051269;28;20455;-81
2021/12/10 08:34:31;;;;;;;21.40;12.43;;;2.70;99.90;;;;;;5058363;28;20496;-81
2021/12/10 08:36:57;;;;;;;21.45;13.68;;;2.70;99.90;;;;;;5069273;28;20049;-81
2021/12/10 08:39:24;;;;;;;20.67;13.10;;;2.80;99.90;;;;;;5051655;28;20045;-81
2021/12/10 08:41:51;;;;;;;15.32;11.25;;;2.80;99.90;;;;;;5055541;28;20060;-81
2021/12/10 08:44:17;;;;;;;19.00;11.38;;;2.80;99.90;;;;;;5053758;28;20045;-81
2021/12/10 08:46:44;;;;;;;19.30;11.30;;;2.80;99.90;;;;;;5058338;28;20052;-81
2021/12/10 08:49:10;;;;;;;19.85;11.70;;;2.90;99.90;;;;;;5059866;28;20044;-80
2021/12/10 08:51:37;;;;;;;19.92;11.05;;;2.80;99.90;;;;;;5052589;28;20400;-81
2021/12/10 08:54:04;;;;;;;20.05;11.07;;;2.80;99.90;;;;;;5052453;28;20051;-81
2021/12/10 08:56:30;;;;;;;22.73;10.52;;;2.80;99.90;;;;;;5051228;28;20484;-81
2021/12/10 08:58:58;;;;;;;15.98;11.43;;;2.70;99.90;;;;;;5054148;28;20051;-81
2021/12/10 09:01:25;;;;;;;14.68;11.13;;;2.80;99.90;;;;;;5050223;28;20049;-81
2021/12/10 09:03:51;;;;;;;16.58;11.75;;;2.80;99.90;;;;;;5050510;28;20051;-81
2021/12/10 09:06:18;;;;;;;19.73;12.23;;;2.80;99.90;;;;;;5053762;28;20049;-80
2021/12/10 09:08:44;;;;;;;20.33;11.60;;;2.90;99.90;;;;;;5056187;28;20052;-81
2021/12/10 09:11:11;;;;;;;17.60;11.23;;;2.90;99.90;;;;;;5055674;28;20045;-80
2021/12/10 09:13:37;;;;;;;20.80;12.00;;;2.90;99.90;;;;;;5059920;28;20068;-81
2021/12/10 09:16:04;;;;;;;15.52;11.93;;;2.90;99.90;;;;;;5062088;28;20519;-81
2021/12/10 09:18:30;;;;;;;18.10;11.00;;;3.00;99.90;;;;;;5057876;28;20476;-80
2021/12/10 09:20:57;;;;;;;17.05;11.48;;;3.00;99.90;;;;;;5058914;28;20244;-80
2021/12/10 09:23:23;;;;;;;16.83;10.95;;;3.00;99.90;;;;;;5055597;28;20049;-81
2021/12/10 09:25:50;;;;;;;17.63;11.32;;;3.00;99.90;;;;;;5055836;28;20075;-81
2021/12/10 09:28:16;;;;;;;15.57;11.18;;;3.20;99.90;;;;;;5060054;28;20502;-81
2021/12/10 09:30:43;;;;;;;21.50;10.60;;;3.20;99.90;;;;;;5058058;28;20477;-81
2021/12/10 09:33:10;;;;;;;14.25;10.07;;;3.20;99.90;;;;;;5051365;28;20041;-80
2021/12/10 09:35:36;;;;;;;19.10;13.15;;;3.30;99.90;;;;;;5051481;28;20063;-81
2021/12/10 09:38:03;;;;;;;16.73;10.82;;;3.40;99.90;;;;;;5052740;28;20048;-81
2021/12/10 09:40:30;;;;;;;17.45;11.65;;;3.50;99.90;;;;;;5060350;28;20044;-81
2021/12/10 09:42:57;;;;;;;16.15;10.90;;;3.50;99.90;;;;;;5055725;28;20045;-81
2021/12/10 09:45:23;;;;;;;15.45;10.73;;;3.60;99.90;;;;;;5058095;28;20071;-81
2021/12/10 09:47:50;;;;;;;18.33;11.13;;;3.70;99.90;;;;;;5061812;28;20055;-81
2021/12/10 09:50:16;;;;;;;18.70;11.18;;;3.70;99.90;;;;;;5051919;28;20056;-81
2021/12/10 09:52:43;;;;;;;14.77;10.93;;;3.70;99.90;;;;;;5047484;28;20057;-81
2021/12/10 09:55:09;;;;;;;17.80;10.77;;;3.80;99.90;;;;;;5050348;28;20049;-80
2021/12/10 09:57:36;;;;;;;20.30;11.05;;;3.80;99.90;;;;;;5050421;28;20068;-80
2021/12/10 10:00:02;;;;;;;15.77;9.93;;;3.90;99.90;;;;;;5049204;28;20049;-81
2021/12/10 10:02:29;;;;;;;15.70;11.00;;;3.90;99.90;;;;;;5057193;28;20060;-81
2021/12/10 10:04:56;;;;;;;17.80;11.10;;;3.90;99.90;;;;;;5050937;28;20063;-81
2021/12/10 10:07:22;;;;;;;13.77;10.10;;;3.90;99.90;;;;;;5053914;28;20056;-81
2021/12/10 10:09:49;;;;;;;12.60;9.55;;;3.80;99.90;;;;;;5058996;28;20140;-81
2021/12/10 10:12:15;;;;;;;20.30;10.05;;;3.90;99.90;;;;;;5050995;28;20131;-80
2021/12/10 10:14:42;;;;;;;21.38;9.65;;;3.80;99.90;;;;;;5056882;28;20056;-81
2021/12/10 10:17:09;;;;;;;13.77;9.63;;;3.90;99.90;;;;;;5054856;28;20133;-81
2021/12/10 10:19:35;;;;;;;12.00;9.20;;;4.00;99.90;;;;;;5059423;28;20136;-81
2021/12/10 10:22:02;;;;;;;15.00;8.77;;;4.00;99.90;;;;;;5050193;28;20045;-81
2021/12/10 10:24:28;;;;;;;23.35;10.82;;;4.10;99.90;;;;;;5058519;28;20063;-81
2021/12/10 10:26:56;;;;;;;11.27;8.73;;;4.10;99.90;;;;;;5058249;28;20160;-81
2021/12/10 10:29:22;;;;;;;17.85;10.10;;;4.20;99.90;;;;;;5054292;28;20056;-81
2021/12/10 10:31:50;;;;;;;15.25;7.88;;;4.20;99.90;;;;;;5045394;28;20064;-81
2021/12/10 10:34:16;;;;;;;16.38;9.88;;;4.30;99.90;;;;;;5057500;28;20568;-81
2021/12/10 10:36:43;;;;;;;12.57;9.07;;;4.30;99.90;;;;;;5058617;28;20498;-80
2021/12/10 10:39:10;;;;;;;15.50;9.88;;;4.40;99.90;;;;;;5056608;28;20076;-81
2021/12/10 10:41:36;;;;;;;12.20;7.72;;;4.40;99.90;;;;;;5066112;28;20059;-81
2021/12/10 10:44:03;;;;;;;10.50;8.55;;;4.40;99.90;;;;;;5064266;28;20045;-81
2021/12/10 10:46:29;;;;;;;13.88;8.25;;;4.50;99.90;;;;;;5064840;28;20060;-81
2021/12/10 10:48:56;;;;;;;15.65;9.43;;;4.60;99.90;;;;;;5063258;28;20056;-81
2021/12/10 10:51:22;;;;;;;18.17;9.52;;;4.60;99.90;;;;;;5064355;28;20488;-81
2021/12/10 10:53:49;;;;;;;10.95;8.50;;;4.60;99.90;;;;;;5057053;28;20047;-81
2021/12/10 10:56:15;;;;;;;11.45;8.20;;;4.50;99.90;;;;;;5048950;28;20049;-81
2021/12/10 10:58:42;;;;;;;21.48;9.10;;;4.60;99.90;;;;;;5074211;28;20045;-80
2021/12/10 11:01:14;;;;;;;13.38;8.57;;;4.60;99.90;;;;;;5066028;28;20060;-81
2021/12/10 11:03:42;;;;;;;12.23;8.02;;;4.60;99.90;;;;;;5056545;28;21279;-81
2021/12/10 11:06:09;;;;;;;14.77;8.70;;;4.60;99.90;;;;;;5080363;28;20081;-80
2021/12/10 11:08:35;;;;;;;10.57;8.73;;;4.60;99.90;;;;;;5064860;28;20110;-81
2021/12/10 11:11:02;;;;;;;12.13;8.38;;;4.60;99.90;;;;;;5069486;28;20053;-81
2021/12/10 11:13:28;;;;;;;14.10;9.10;;;4.70;99.90;;;;;;5065573;28;20057;-82
2021/12/10 11:15:55;;;;;;;15.20;9.02;;;4.80;99.90;;;;;;5067890;28;20049;-83
2021/12/10 11:18:21;;;;;;;14.70;8.77;;;4.80;99.90;;;;;;5071761;28;20056;-82
2021/12/10 11:20:48;;;;;;;14.07;9.18;;;4.90;99.90;;;;;;5065629;28;20048;-81
2021/12/10 11:23:16;;;;;;;10.60;8.45;;;5.00;99.90;;;;;;5059026;28;20132;-81
2021/12/10 11:25:43;;;;;;;13.80;8.40;;;5.00;99.90;;;;;;5054154;28;20053;-81
2021/12/10 11:28:09;;;;;;;13.95;9.35;;;5.00;99.90;;;;;;5057291;28;20060;-81
2021/12/10 11:30:36;;;;;;;11.07;7.80;;;5.00;99.90;;;;;;5057611;28;20489;-82
2021/12/10 11:33:04;;;;;;;15.63;9.63;;;5.00;99.90;;;;;;5060793;28;20411;-82
2021/12/10 11:35:30;;;;;;;11.43;8.13;;;4.90;99.90;;;;;;5055666;28;20558;-81
2021/12/10 11:37:57;;;;;;;13.80;7.90;;;5.00;99.90;;;;;;5053171;28;20063;-81
2021/12/10 11:40:23;;;;;;;11.85;7.07;;;4.90;99.90;;;;;;5055846;28;20048;-82
2021/12/10 11:42:56;;;;;;;10.57;8.52;;;4.90;99.90;;;;;;5054254;28;20041;-80
2021/12/10 11:45:30;;;;;;;10.80;8.20;;;4.90;99.90;;;;;;5057954;28;20048;-81
2021/12/10 11:48:05;;;;;;;14.95;7.45;;;5.00;99.90;;;;;;5054778;28;20049;-82
2021/12/10 11:50:32;;;;;;;12.60;8.15;;;5.00;99.90;;;;;;5053097;28;20052;-82
2021/12/10 11:52:58;;;;;;;10.50;7.30;;;5.10;99.90;;;;;;5060684;28;20053;-82
2021/12/10 11:55:25;;;;;;;10.73;8.50;;;5.00;99.90;;;;;;5069611;28;20052;-82
2021/12/10 11:57:52;;;;;;;15.45;8.05;;;5.00;99.90;;;;;;5067248;28;20052;-81
2021/12/10 12:00:18;;;;;;;10.88;7.50;;;5.00;99.90;;;;;;5052944;28;20403;-82
2021/12/10 12:02:45;;;;;;;15.63;8.88;;;5.10;99.90;;;;;;5047760;28;20044;-82
2021/12/10 12:05:11;;;;;;;11.20;6.68;;;5.10;99.90;;;;;;5053878;28;20051;-82
2021/12/10 12:07:39;;;;;;;10.98;6.72;;;5.10;99.90;;;;;;5059300;28;20045;-84
2021/12/10 12:10:06;;;;;;;11.07;7.22;;;5.10;99.90;;;;;;5055886;28;20048;-82
2021/12/10 12:12:37;;;;;;;11.55;7.18;;;5.10;99.90;;;;;;5054440;28;20055;-82
2021/12/10 12:15:04;;;;;;;11.60;7.68;;;5.10;99.90;;;;;;5049874;28;20052;-82
2021/12/10 12:17:31;;;;;;;10.40;6.60;;;5.10;99.90;;;;;;5053265;28;20904;-83
2021/12/10 12:19:57;;;;;;;10.93;7.00;;;5.20;99.90;;;;;;5052790;28;20519;-82
2021/12/10 12:25:11;;;;;;;17.60;8.77;;;5.20;99.90;;;;;;5063426;28;20044;-83
2021/12/10 12:27:38;;;;;;;10.68;8.07;;;5.20;99.90;;;;;;5059942;28;20052;-82
2021/12/10 12:30:06;;;;;;;11.75;7.78;;;5.30;99.90;;;;;;5055265;28;20053;-83
2021/12/10 12:32:33;;;;;;;11.80;6.90;;;5.30;99.90;;;;;;5063920;28;20059;-84
2021/12/10 12:34:59;;;;;;;9.80;6.13;;;5.20;99.90;;;;;;5055613;28;20049;-84
2021/12/10 12:37:26;;;;;;;8.18;5.95;;;5.20;99.90;;;;;;5069141;28;20535;-84
2021/12/10 12:39:52;;;;;;;8.82;6.07;;;5.20;99.90;;;;;;5057756;28;20503;-83
2021/12/10 12:42:19;;;;;;;12.48;7.07;;;5.20;99.90;;;;;;5054673;28;20087;-86
2021/12/10 12:44:45;;;;;;;8.23;6.65;;;5.20;99.90;;;;;;5059870;28;20041;-87
2021/12/10 12:47:13;;;;;;;9.73;6.03;;;5.20;99.90;;;;;;5061172;28;20049;-86